Time;durP1;ratioP1;P1;durP2;ratioP2;P2;SDS_P1;SDS_P2;PMS_P1;PMS_P2;Temp;Humidity;BMP_temperature;BMP_pressure;BME280_temperature;BME280_humidity;BME280_pressure;Samples;Min_cycle;Max_cycle;Signal;HPM_P1;HPM_P2
2021/09/20 00:01:49;;;;;;;5.60;1.70;;;22.00;71.10;;;;;;5210897;28;20049;-62
2021/09/20 00:04:22;;;;;;;1.90;1.60;;;22.00;71.00;;;;;;5211676;28;20986;-59
2021/09/20 00:06:54;;;;;;;3.45;1.80;;;22.00;71.00;;;;;;5205540;28;20091;-58
2021/09/20 00:09:27;;;;;;;3.17;1.88;;;22.00;71.00;;;;;;5211785;28;20060;-60
2021/09/20 00:12:02;;;;;;;3.03;1.60;;;22.00;71.00;;;;;;5214099;28;20048;-59
2021/09/20 00:14:34;;;;;;;3.03;1.60;;;22.00;71.00;;;;;;5210707;28;20045;-61
2021/09/20 00:17:07;;;;;;;4.80;1.60;;;22.00;71.00;;;;;;5209252;28;20060;-58
2021/09/20 00:19:40;;;;;;;2.10;1.50;;;22.00;71.00;;;;;;5212491;28;20055;-63
2021/09/20 00:22:12;;;;;;;3.60;1.77;;;22.00;71.10;;;;;;5212724;28;20049;-62
2021/09/20 00:24:44;;;;;;;2.47;1.17;;;22.00;71.00;;;;;;5211129;28;20040;-63
2021/09/20 00:27:17;;;;;;;4.95;1.35;;;22.00;70.90;;;;;;5212474;28;20045;-63
2021/09/20 00:29:50;;;;;;;4.68;1.20;;;22.00;70.90;;;;;;5214118;28;20040;-60
2021/09/20 00:32:22;;;;;;;1.98;1.42;;;22.00;71.00;;;;;;5210834;28;20504;-62
2021/09/20 00:34:55;;;;;;;5.22;1.65;;;22.00;71.00;;;;;;5211687;28;20049;-59
2021/09/20 00:37:27;;;;;;;2.13;1.25;;;22.00;71.00;;;;;;5211211;28;20049;-61
2021/09/20 00:40:00;;;;;;;2.60;1.33;;;22.00;71.00;;;;;;5213282;28;20049;-64
2021/09/20 00:42:33;;;;;;;3.83;1.50;;;22.00;71.70;;;;;;5210070;28;20045;-58
2021/09/20 00:45:07;;;;;;;2.97;1.23;;;22.00;71.10;;;;;;5214040;28;20037;-60
2021/09/20 00:47:39;;;;;;;2.10;1.20;;;22.00;71.10;;;;;;5214616;28;20489;-61
2021/09/20 00:50:12;;;;;;;4.47;1.30;;;22.00;71.10;;;;;;5213419;28;20033;-61
2021/09/20 00:52:44;;;;;;;2.45;1.52;;;22.00;71.10;;;;;;5212440;28;20044;-62
2021/09/20 00:55:17;;;;;;;9.45;1.60;;;22.00;71.10;;;;;;5219172;28;20060;-60
2021/09/20 00:57:50;;;;;;;3.15;1.40;;;22.00;71.10;;;;;;5216826;28;20059;-56
2021/09/20 01:00:22;;;;;;;4.40;1.65;;;22.00;71.10;;;;;;5216213;28;20075;-58
2021/09/20 01:02:54;;;;;;;2.08;1.30;;;22.00;71.10;;;;;;5213650;28;20041;-61
2021/09/20 01:05:27;;;;;;;1.35;1.17;;;22.00;71.10;;;;;;5217052;28;20041;-56
2021/09/20 01:08:00;;;;;;;2.30;1.20;;;21.90;71.00;;;;;;5215937;28;20072;-59
2021/09/20 01:10:32;;;;;;;4.13;1.70;;;22.00;71.10;;;;;;5216093;28;20515;-61
2021/09/20 01:13:05;;;;;;;1.98;1.40;;;22.00;71.00;;;;;;5210896;28;20497;-59
2021/09/20 01:15:37;;;;;;;6.85;1.55;;;21.90;71.00;;;;;;5213285;28;20053;-60
2021/09/20 01:18:10;;;;;;;6.28;1.50;;;21.90;71.00;;;;;;5215036;28;20413;-60
2021/09/20 01:20:42;;;;;;;3.83;1.43;;;21.90;71.00;;;;;;5215701;28;20061;-60
2021/09/20 01:23:15;;;;;;;1.50;1.10;;;21.90;71.00;;;;;;5216596;28;20056;-63
2021/09/20 01:25:47;;;;;;;2.45;1.25;;;21.90;71.00;;;;;;5215068;28;20057;-58
2021/09/20 01:28:20;;;;;;;2.10;1.30;;;21.90;71.00;;;;;;5215796;28;20040;-60
2021/09/20 01:30:53;;;;;;;2.40;1.38;;;21.90;71.00;;;;;;5211167;28;20036;-56
2021/09/20 01:33:25;;;;;;;1.77;1.30;;;21.90;71.00;;;;;;5215119;28;20049;-65
2021/09/20 01:35:58;;;;;;;1.05;0.90;;;21.90;70.90;;;;;;5213702;28;20056;-61
2021/09/20 01:38:30;;;;;;;1.92;1.20;;;21.90;70.90;;;;;;5214813;28;20052;-60
2021/09/20 01:41:03;;;;;;;2.20;1.08;;;21.90;70.90;;;;;;5215911;28;20056;-60
2021/09/20 01:43:35;;;;;;;1.50;1.00;;;21.90;71.00;;;;;;5214577;28;20055;-62
2021/09/20 01:46:08;;;;;;;1.55;1.20;;;21.90;71.00;;;;;;5213720;28;20053;-59
2021/09/20 01:48:40;;;;;;;2.08;1.33;;;21.90;71.00;;;;;;5215673;28;20307;-61
2021/09/20 01:51:15;;;;;;;2.53;1.47;;;21.90;71.00;;;;;;5216080;28;20052;-60
2021/09/20 01:53:47;;;;;;;4.50;1.38;;;21.90;70.90;;;;;;5213199;28;20299;-61
2021/09/20 01:56:20;;;;;;;5.40;1.77;;;21.90;70.90;;;;;;5214263;28;20436;-61
2021/09/20 01:58:52;;;;;;;4.65;1.20;;;21.90;71.00;;;;;;5214626;28;20040;-60
2021/09/20 02:01:25;;;;;;;3.42;1.17;;;21.90;71.00;;;;;;5215525;28;20460;-62
2021/09/20 02:03:58;;;;;;;8.10;2.35;;;21.90;71.00;;;;;;5210643;28;20052;-61
2021/09/20 02:06:31;;;;;;;2.63;1.08;;;21.90;70.90;;;;;;5214082;28;20049;-56
2021/09/20 02:09:08;;;;;;;3.58;1.58;;;21.90;71.00;;;;;;5214862;28;20049;-60
2021/09/20 02:11:41;;;;;;;2.35;1.30;;;21.80;70.90;;;;;;5213008;28;20548;-62
2021/09/20 02:14:13;;;;;;;3.38;1.13;;;21.80;70.90;;;;;;5214439;28;20045;-59
2021/09/20 02:16:46;;;;;;;3.47;1.20;;;21.80;70.90;;;;;;5215236;28;20053;-58
2021/09/20 02:19:18;;;;;;;4.43;1.13;;;21.90;71.00;;;;;;5216434;28;20033;-60
2021/09/20 02:21:51;;;;;;;1.42;1.20;;;21.80;70.90;;;;;;5212562;28;20666;-61
2021/09/20 02:24:23;;;;;;;3.03;1.55;;;21.80;70.90;;;;;;5206351;28;20056;-60
2021/09/20 02:26:56;;;;;;;3.60;1.50;;;21.80;70.90;;;;;;5210977;28;20411;-61
2021/09/20 02:29:28;;;;;;;3.78;1.50;;;21.80;70.90;;;;;;5214031;28;20041;-62
2021/09/20 02:32:02;;;;;;;1.90;1.70;;;21.80;70.80;;;;;;5214927;28;20040;-60
2021/09/20 02:34:34;;;;;;;2.53;1.90;;;21.80;70.80;;;;;;5210973;28;20616;-61
2021/09/20 02:37:07;;;;;;;3.13;1.90;;;21.80;70.80;;;;;;5212722;28;20064;-57
2021/09/20 02:39:39;;;;;;;7.20;2.78;;;21.80;70.80;;;;;;5211432;28;20524;-61
2021/09/20 02:42:11;;;;;;;4.05;2.10;;;21.80;70.80;;;;;;5206617;28;20069;-64
2021/09/20 02:44:44;;;;;;;2.25;1.98;;;21.80;70.60;;;;;;5202017;28;20045;-62
2021/09/20 02:47:17;;;;;;;3.25;2.17;;;21.80;70.50;;;;;;5206423;28;20049;-63
2021/09/20 02:49:49;;;;;;;2.43;1.83;;;21.80;70.50;;;;;;5209404;28;20041;-60
2021/09/20 02:52:22;;;;;;;2.53;2.08;;;21.80;70.50;;;;;;5203922;28;20041;-61
2021/09/20 02:54:54;;;;;;;4.35;2.10;;;21.80;70.50;;;;;;5204909;28;20154;-61
2021/09/20 02:57:27;;;;;;;4.57;1.73;;;21.80;70.50;;;;;;5205635;28;20059;-60
2021/09/20 03:00:00;;;;;;;2.80;2.30;;;21.80;70.60;;;;;;5208693;28;20405;-62
2021/09/20 03:02:32;;;;;;;4.22;2.08;;;21.80;70.60;;;;;;5197577;28;20409;-62
2021/09/20 03:05:06;;;;;;;5.90;2.17;;;21.80;70.60;;;;;;5212160;28;21363;-60
2021/09/20 03:07:39;;;;;;;3.28;2.17;;;21.80;71.30;;;;;;5213945;28;20045;-62
2021/09/20 03:10:12;;;;;;;3.15;2.35;;;21.80;70.80;;;;;;5208370;28;20582;-61
2021/09/20 03:12:46;;;;;;;7.88;2.50;;;21.80;70.80;;;;;;5211030;28;20055;-63
2021/09/20 03:15:18;;;;;;;;;;;21.80;71.50;;;;;;5212872;28;20092;-61
2021/09/20 03:17:50;;;;;;;4.45;3.28;;;21.80;71.00;;;;;;5211126;28;19931;-61
2021/09/20 03:20:23;;;;;;;4.97;2.17;;;21.80;71.10;;;;;;5212800;28;20048;-59
2021/09/20 03:22:55;;;;;;;2.13;1.70;;;21.80;71.20;;;;;;5209728;28;20063;-63
2021/09/20 03:25:28;;;;;;;5.53;2.40;;;21.80;71.20;;;;;;5207031;28;20049;-60
2021/09/20 03:28:00;;;;;;;7.32;2.83;;;21.80;71.20;;;;;;5212105;28;20412;-62
2021/09/20 03:30:33;;;;;;;4.65;2.92;;;21.80;71.30;;;;;;5211542;28;20041;-62
2021/09/20 03:33:05;;;;;;;5.45;2.47;;;21.80;71.40;;;;;;5211149;28;20915;-61
2021/09/20 03:35:38;;;;;;;8.57;2.17;;;21.80;71.50;;;;;;5209935;28;20052;-63
2021/09/20 03:38:10;;;;;;;7.88;2.28;;;21.80;71.60;;;;;;5206274;28;20052;-62
2021/09/20 03:40:43;;;;;;;3.15;2.13;;;21.80;72.10;;;;;;5210828;28;20056;-62
2021/09/20 03:43:15;;;;;;;4.55;2.05;;;21.90;71.60;;;;;;5213182;28;20056;-58
2021/09/20 03:45:48;;;;;;;5.50;2.03;;;21.80;71.60;;;;;;5207596;28;21245;-63
2021/09/20 03:48:20;;;;;;;7.53;2.33;;;21.80;71.60;;;;;;5211833;28;20046;-60
2021/09/20 03:50:52;;;;;;;7.07;2.50;;;21.90;71.70;;;;;;5211165;28;20045;-60
2021/09/20 03:53:25;;;;;;;3.97;2.75;;;21.90;71.70;;;;;;5211795;28;20478;-61
2021/09/20 03:55:57;;;;;;;5.15;2.10;;;21.90;71.70;;;;;;5209195;28;20048;-57
2021/09/20 03:58:30;;;;;;;3.90;2.25;;;21.80;71.70;;;;;;5211223;28;20502;-58
2021/09/20 04:01:03;;;;;;;5.28;2.60;;;21.80;71.70;;;;;;5210052;28;20076;-62
2021/09/20 04:03:36;;;;;;;4.82;2.20;;;21.80;71.80;;;;;;5210254;28;20049;-61
2021/09/20 04:06:09;;;;;;;6.70;2.22;;;21.80;71.80;;;;;;5207709;28;20086;-61
2021/09/20 04:08:41;;;;;;;10.00;2.72;;;21.80;71.80;;;;;;5206501;28;20052;-64
2021/09/20 04:11:14;;;;;;;6.93;2.40;;;21.90;71.90;;;;;;5210779;28;20056;-59
2021/09/20 04:13:47;;;;;;;9.27;2.33;;;21.80;72.00;;;;;;5206097;28;20775;-61
2021/09/20 04:16:19;;;;;;;7.00;2.97;;;21.80;72.00;;;;;;5205580;28;20047;-61
2021/09/20 04:18:52;;;;;;;4.45;1.98;;;21.80;72.00;;;;;;5205723;28;20053;-59
2021/09/20 04:21:24;;;;;;;5.32;2.38;;;21.80;72.00;;;;;;5212807;28;20048;-60
2021/09/20 04:23:57;;;;;;;7.97;2.58;;;21.80;72.00;;;;;;5207247;28;20065;-57
2021/09/20 04:26:29;;;;;;;7.17;2.60;;;21.80;72.10;;;;;;5201009;28;20052;-61
2021/09/20 04:29:02;;;;;;;7.95;2.70;;;21.80;72.20;;;;;;5210051;28;20048;-62
2021/09/20 04:31:34;;;;;;;6.57;2.42;;;21.80;72.20;;;;;;5212377;28;20048;-58
2021/09/20 04:34:07;;;;;;;10.23;2.53;;;21.80;72.20;;;;;;5207233;28;20405;-59
2021/09/20 04:36:39;;;;;;;9.45;2.83;;;21.80;72.20;;;;;;5213679;28;20056;-60
2021/09/20 04:39:12;;;;;;;6.60;2.55;;;21.80;72.20;;;;;;5212770;28;20048;-61
2021/09/20 04:41:44;;;;;;;11.67;2.57;;;21.80;72.20;;;;;;5212605;28;20053;-60
2021/09/20 04:44:17;;;;;;;5.00;2.47;;;21.80;72.20;;;;;;5193368;28;20108;-60
2021/09/20 04:46:50;;;;;;;9.40;2.47;;;21.80;72.20;;;;;;5206759;28;20500;-59
2021/09/20 04:49:22;;;;;;;9.60;3.00;;;21.80;72.20;;;;;;5208154;28;20056;-63
2021/09/20 04:51:54;;;;;;;8.07;2.67;;;21.80;72.30;;;;;;5213065;28;20049;-61
2021/09/20 04:54:27;;;;;;;5.22;2.40;;;21.80;72.40;;;;;;5211197;28;20048;-61
2021/09/20 04:57:00;;;;;;;10.85;3.10;;;21.80;72.40;;;;;;5211961;28;20045;-57
2021/09/20 04:59:33;;;;;;;14.27;3.33;;;21.80;72.40;;;;;;5210854;28;20596;-62
2021/09/20 05:02:05;;;;;;;11.15;7.78;;;21.90;72.50;;;;;;5208775;28;20421;-61
2021/09/20 05:04:38;;;;;;;12.67;8.10;;;21.80;68.00;;;;;;5210657;28;20060;-61
2021/09/20 05:07:10;;;;;;;12.60;9.38;;;21.70;65.50;;;;;;5212012;28;20173;-61
2021/09/20 05:09:43;;;;;;;17.98;9.55;;;21.50;64.80;;;;;;5212919;28;20049;-62
2021/09/20 05:12:15;;;;;;;13.68;8.93;;;21.30;64.80;;;;;;5200189;28;20048;-63
2021/09/20 05:14:48;;;;;;;13.23;10.73;;;21.20;64.90;;;;;;5199118;28;20034;-62
2021/09/20 05:17:20;;;;;;;13.02;10.35;;;21.00;64.70;;;;;;5198706;28;20052;-62
2021/09/20 05:19:52;;;;;;;14.20;9.27;;;20.90;64.80;;;;;;5186949;28;20059;-61
2021/09/20 05:22:25;;;;;;;12.73;10.05;;;20.80;65.30;;;;;;5185665;28;20527;-61
2021/09/20 05:24:58;;;;;;;11.77;10.10;;;20.70;65.10;;;;;;5182616;28;20053;-62
2021/09/20 05:27:31;;;;;;;13.60;10.10;;;20.70;65.10;;;;;;5185408;28;20640;-59
2021/09/20 05:30:05;;;;;;;13.88;10.55;;;20.80;65.30;;;;;;5181105;28;20505;-62
2021/09/20 05:32:38;;;;;;;12.15;10.00;;;20.70;65.20;;;;;;5187751;28;20068;-61
2021/09/20 05:35:13;;;;;;;15.95;10.50;;;20.80;65.20;;;;;;5194236;28;20151;-60
2021/09/20 05:37:46;;;;;;;16.67;11.45;;;20.80;65.40;;;;;;5195833;28;20599;-61
2021/09/20 05:40:22;;;;;;;14.88;10.20;;;20.80;65.00;;;;;;5192021;28;20059;-63
2021/09/20 05:42:59;;;;;;;13.45;10.02;;;20.80;64.90;;;;;;4496089;28;9999928;-62
2021/09/20 05:45:31;;;;;;;15.82;10.18;;;20.80;64.80;;;;;;5206945;28;20052;-63
2021/09/20 05:48:05;;;;;;;12.60;10.38;;;20.80;64.80;;;;;;5199735;28;20136;-62
2021/09/20 05:50:39;;;;;;;13.23;10.20;;;20.80;64.70;;;;;;5198492;28;20045;-58
2021/09/20 05:53:13;;;;;;;18.00;10.55;;;20.70;64.80;;;;;;5204297;28;20382;-61
2021/09/20 05:55:45;;;;;;;11.82;9.95;;;20.70;64.70;;;;;;5198464;28;20044;-60
2021/09/20 05:58:18;;;;;;;12.85;10.38;;;20.70;64.70;;;;;;5206799;28;20060;-61
2021/09/20 06:00:50;;;;;;;12.05;7.20;;;20.70;64.70;;;;;;5203152;28;20072;-60
2021/09/20 06:03:23;;;;;;;10.95;7.25;;;20.70;67.80;;;;;;5202329;28;20049;-60
2021/09/20 06:05:56;;;;;;;11.95;6.65;;;20.70;69.30;;;;;;5204066;28;20310;-61
2021/09/20 06:08:28;;;;;;;8.18;6.57;;;20.80;69.80;;;;;;5197093;28;20063;-61
2021/09/20 06:11:01;;;;;;;11.45;6.72;;;20.80;70.00;;;;;;5201742;28;20717;-61
2021/09/20 06:13:33;;;;;;;10.65;5.78;;;20.90;70.10;;;;;;5204238;28;20053;-62
2021/09/20 06:16:07;;;;;;;8.80;5.95;;;20.90;70.10;;;;;;5198409;28;20650;-60
2021/09/20 06:18:39;;;;;;;7.70;6.60;;;20.90;70.20;;;;;;5199945;28;20048;-60
2021/09/20 06:21:12;;;;;;;7.68;6.10;;;21.00;70.20;;;;;;5202704;28;20061;-61
2021/09/20 06:23:45;;;;;;;7.72;6.20;;;21.00;70.20;;;;;;5203257;28;20414;-61
2021/09/20 06:26:18;;;;;;;12.63;6.20;;;21.00;70.20;;;;;;5201561;28;20072;-60
2021/09/20 06:28:50;;;;;;;8.93;6.32;;;21.00;70.30;;;;;;5201861;28;20049;-60
2021/09/20 06:31:22;;;;;;;8.88;6.28;;;21.00;70.30;;;;;;5200274;28;20041;-60
2021/09/20 06:33:56;;;;;;;7.65;6.10;;;21.10;70.30;;;;;;5193723;28;20057;-62
2021/09/20 06:36:28;;;;;;;9.40;6.63;;;21.10;70.30;;;;;;5193089;28;20045;-61
2021/09/20 06:39:01;;;;;;;9.95;6.35;;;21.10;70.30;;;;;;5198820;28;20662;-62
2021/09/20 06:41:34;;;;;;;12.23;6.00;;;21.10;70.30;;;;;;5200891;28;20453;-62
2021/09/20 06:44:09;;;;;;;10.18;6.28;;;21.10;70.30;;;;;;5203401;28;20072;-60
2021/09/20 06:46:41;;;;;;;6.97;5.13;;;21.20;70.40;;;;;;5196229;28;20048;-59
2021/09/20 06:49:15;;;;;;;8.38;5.93;;;21.20;70.40;;;;;;5198643;28;20072;-62
2021/09/20 06:51:47;;;;;;;6.70;5.82;;;21.20;70.40;;;;;;5206913;28;20053;-61
2021/09/20 06:54:20;;;;;;;6.45;4.90;;;21.20;70.40;;;;;;5203010;28;20045;-62
2021/09/20 06:56:54;;;;;;;11.80;6.10;;;21.20;70.40;;;;;;5200410;28;20481;-58
2021/09/20 06:59:27;;;;;;;8.98;5.97;;;21.20;70.40;;;;;;5204248;28;20045;-61
2021/09/20 07:02:00;;;;;;;7.67;5.67;;;21.20;70.40;;;;;;5200978;28;20079;-62
2021/09/20 07:04:32;;;;;;;8.73;5.88;;;21.30;70.40;;;;;;5196783;28;20052;-60
2021/09/20 07:07:05;;;;;;;7.00;5.43;;;21.30;70.50;;;;;;5185788;28;20507;-60
2021/09/20 07:09:37;;;;;;;7.75;5.50;;;21.30;70.50;;;;;;5194741;28;20060;-60
2021/09/20 07:12:10;;;;;;;9.48;5.25;;;21.30;70.50;;;;;;5200272;28;20045;-56
2021/09/20 07:14:42;;;;;;;7.73;5.27;;;21.30;70.50;;;;;;5201239;28;20509;-60
2021/09/20 07:17:15;;;;;;;7.95;5.85;;;21.30;70.50;;;;;;5205876;28;20041;-58
2021/09/20 07:19:58;;;;;;;6.93;5.25;;;21.30;70.50;;;;;;5206040;28;20061;-60
2021/09/20 07:22:31;;;;;;;6.63;5.45;;;21.30;70.50;;;;;;5205739;28;20052;-57
2021/09/20 07:25:05;;;;;;;7.13;5.25;;;21.30;70.50;;;;;;5200710;28;20073;-64
2021/09/20 07:27:38;;;;;;;7.18;5.38;;;21.30;70.50;;;;;;5208083;28;20452;-61
2021/09/20 07:30:16;;;;;;;8.48;5.47;;;21.30;70.50;;;;;;5207889;28;20045;-60
2021/09/20 07:32:50;;;;;;;7.60;5.35;;;21.30;70.50;;;;;;5211930;28;20056;-60
2021/09/20 07:35:23;;;;;;;11.07;5.20;;;21.30;70.50;;;;;;5213352;28;20045;-60
2021/09/20 07:37:56;;;;;;;6.40;4.93;;;21.30;70.50;;;;;;5206252;28;20049;-61
2021/09/20 07:40:29;;;;;;;7.15;5.03;;;21.30;70.50;;;;;;5211954;28;20045;-61
2021/09/20 07:43:03;;;;;;;7.65;5.88;;;21.30;70.50;;;;;;5213002;28;20060;-60
2021/09/20 07:45:36;;;;;;;7.85;5.22;;;21.40;70.60;;;;;;5212750;28;20045;-59
2021/09/20 07:48:08;;;;;;;7.72;5.18;;;21.30;70.50;;;;;;5210298;28;20041;-62
2021/09/20 07:50:41;;;;;;;6.45;4.93;;;21.40;70.90;;;;;;5214160;28;20044;-59
2021/09/20 07:53:13;;;;;;;8.00;5.33;;;21.30;70.50;;;;;;5211487;28;20070;-58
2021/09/20 07:55:47;;;;;;;8.65;4.85;;;21.40;70.50;;;;;;5207382;28;20709;-59
2021/09/20 07:58:20;;;;;;;7.57;5.03;;;21.40;70.60;;;;;;5213238;28;20587;-59
2021/09/20 08:00:52;;;;;;;6.32;4.93;;;21.40;70.60;;;;;;5210493;28;20052;-58
2021/09/20 08:03:25;;;;;;;6.10;4.85;;;21.40;70.60;;;;;;5204550;28;20049;-61
2021/09/20 08:05:58;;;;;;;6.70;5.40;;;21.40;70.60;;;;;;5197535;28;20052;-61
2021/09/20 08:08:31;;;;;;;5.38;4.88;;;21.40;70.60;;;;;;5206193;28;20048;-61
2021/09/20 08:11:03;;;;;;;8.48;5.13;;;21.40;70.60;;;;;;5203913;28;20041;-60
2021/09/20 08:13:36;;;;;;;8.63;5.20;;;21.40;70.60;;;;;;5203864;28;20045;-57
2021/09/20 08:16:08;;;;;;;8.30;5.47;;;21.40;70.60;;;;;;5197271;28;20076;-61
2021/09/20 08:18:41;;;;;;;6.85;4.97;;;21.40;70.60;;;;;;5191011;28;20504;-62
2021/09/20 08:21:14;;;;;;;6.32;4.78;;;21.40;70.60;;;;;;5202268;28;20059;-62
2021/09/20 08:23:46;;;;;;;6.43;5.28;;;21.40;70.50;;;;;;5204194;28;20057;-62
2021/09/20 08:26:19;;;;;;;7.95;5.53;;;21.40;70.60;;;;;;5200745;28;20061;-62
2021/09/20 08:28:51;;;;;;;5.40;4.88;;;21.40;70.60;;;;;;5199138;28;20044;-62
2021/09/20 08:31:24;;;;;;;5.28;4.75;;;21.40;70.50;;;;;;5205130;28;20037;-63
2021/09/20 08:33:56;;;;;;;5.78;5.03;;;21.40;70.50;;;;;;5205186;28;20048;-62
2021/09/20 08:36:29;;;;;;;5.65;5.10;;;21.50;70.40;;;;;;5202008;28;20054;-59
2021/09/20 08:39:03;;;;;;;6.50;4.90;;;21.40;70.30;;;;;;5206130;28;20045;-61
2021/09/20 08:41:41;;;;;;;5.72;4.90;;;21.40;70.30;;;;;;5194053;28;20648;-60
2021/09/20 08:44:15;;;;;;;7.32;5.38;;;21.40;70.30;;;;;;5199622;28;20045;-59
2021/09/20 08:46:52;;;;;;;6.45;5.25;;;21.40;70.30;;;;;;4857450;28;10001076;-60
2021/09/20 08:49:26;;;;;;;7.78;5.57;;;21.40;70.30;;;;;;5201786;28;20405;-60
2021/09/20 08:51:59;;;;;;;5.82;5.03;;;21.40;70.50;;;;;;5216629;28;20053;-58
2021/09/20 08:54:32;;;;;;;8.55;5.53;;;21.40;70.30;;;;;;5204513;28;20212;-64
2021/09/20 08:57:08;;;;;;;7.25;4.95;;;21.40;70.30;;;;;;5206138;28;20059;-61
2021/09/20 08:59:41;;;;;;;7.13;5.45;;;21.40;70.30;;;;;;5207887;28;20140;-61
2021/09/20 09:02:17;;;;;;;9.15;4.82;;;21.40;70.30;;;;;;5207400;28;20402;-58
2021/09/20 09:04:50;;;;;;;7.00;5.75;;;21.50;70.40;;;;;;5202261;28;20052;-57
2021/09/20 09:07:22;;;;;;;6.00;4.55;;;21.50;70.40;;;;;;5208422;28;20119;-54
2021/09/20 09:09:54;;;;;;;7.70;5.03;;;21.50;70.40;;;;;;5227100;28;20037;-61
2021/09/20 09:12:30;;;;;;;6.00;4.90;;;21.50;70.40;;;;;;5206194;28;20041;-59
2021/09/20 09:15:06;;;;;;;7.88;5.40;;;21.50;70.40;;;;;;5198033;28;20433;-60
2021/09/20 09:17:42;;;;;;;5.80;5.07;;;21.50;70.40;;;;;;5216051;28;20049;-61
2021/09/20 09:20:18;;;;;;;6.45;4.85;;;21.50;70.40;;;;;;5215202;28;20041;-64
2021/09/20 09:22:56;;;;;;;6.38;4.53;;;21.40;70.40;;;;;;5206346;28;20052;-62
2021/09/20 09:25:36;;;;;;;7.28;4.85;;;21.50;70.40;;;;;;5216023;28;20049;-59
2021/09/20 09:28:18;;;;;;;7.35;5.00;;;21.50;70.40;;;;;;5214525;28;20048;-59
2021/09/20 09:31:02;;;;;;;7.53;5.85;;;21.50;70.40;;;;;;5212410;28;20045;-59
2021/09/20 09:33:46;;;;;;;6.50;4.95;;;21.50;70.40;;;;;;5212737;28;20049;-59
2021/09/20 09:36:18;;;;;;;6.15;4.63;;;21.50;70.40;;;;;;5217455;28;20056;-59
2021/09/20 09:38:59;;;;;;;5.93;4.45;;;21.50;70.40;;;;;;5214693;28;21385;-62
2021/09/20 09:41:43;;;;;;;7.63;4.65;;;21.50;70.40;;;;;;5214607;28;20044;-61
2021/09/20 09:44:15;;;;;;;7.90;5.00;;;21.50;70.40;;;;;;5208030;28;20052;-61
2021/09/20 09:46:48;;;;;;;6.93;5.32;;;21.50;70.40;;;;;;5216264;28;20496;-61
2021/09/20 09:49:22;;;;;;;7.70;5.45;;;21.50;70.40;;;;;;5215080;28;20558;-60
2021/09/20 09:52:04;;;;;;;6.65;5.22;;;21.50;70.40;;;;;;5213734;28;20041;-60
2021/09/20 09:54:40;;;;;;;6.57;4.85;;;21.50;70.40;;;;;;5213147;28;20041;-59
2021/09/20 09:57:23;;;;;;;7.18;5.10;;;21.50;70.40;;;;;;5215391;28;20044;-61
2021/09/20 10:00:13;;;;;;;6.90;4.90;;;21.50;70.40;;;;;;5214014;28;20048;-61
2021/09/20 10:02:48;;;;;;;8.65;5.22;;;21.50;70.40;;;;;;5215632;28;20505;-61
2021/09/20 10:05:23;;;;;;;5.80;5.20;;;21.50;70.40;;;;;;5229133;28;20056;-61
2021/09/20 10:07:56;;;;;;;7.28;5.30;;;21.50;70.40;;;;;;5209781;28;20610;-61
2021/09/20 10:10:30;;;;;;;6.78;4.75;;;21.50;70.30;;;;;;5214050;28;20060;-61
2021/09/20 10:13:04;;;;;;;6.72;5.40;;;21.50;70.30;;;;;;5215128;28;20044;-60
2021/09/20 10:15:36;;;;;;;5.25;4.75;;;21.50;70.20;;;;;;5214592;28;20048;-63
2021/09/20 10:18:10;;;;;;;5.10;4.60;;;21.60;70.20;;;;;;5217331;28;20056;-61
2021/09/20 10:20:42;;;;;;;7.72;4.95;;;21.60;70.20;;;;;;5213355;28;20052;-60
2021/09/20 10:23:15;;;;;;;5.28;4.75;;;21.60;70.20;;;;;;5209548;28;20444;-61
2021/09/20 10:25:47;;;;;;;5.15;4.47;;;21.60;70.20;;;;;;5209735;28;20049;-58
2021/09/20 10:28:20;;;;;;;7.70;5.18;;;21.60;70.10;;;;;;5215907;28;20072;-59
2021/09/20 10:30:53;;;;;;;5.60;4.28;;;21.70;70.10;;;;;;5215133;28;20037;-58
2021/09/20 10:33:27;;;;;;;5.22;4.68;;;21.70;70.10;;;;;;5214652;28;20436;-59
2021/09/20 10:35:59;;;;;;;6.03;4.63;;;21.70;70.00;;;;;;5213168;28;20045;-61
2021/09/20 10:38:33;;;;;;;5.63;4.90;;;21.70;70.00;;;;;;5215531;28;20060;-56
2021/09/20 10:41:16;;;;;;;6.18;5.10;;;21.70;70.10;;;;;;5213425;28;20052;-62
2021/09/20 10:44:04;;;;;;;5.90;5.28;;;21.70;70.00;;;;;;5212394;28;20048;-62
2021/09/20 10:46:42;;;;;;;5.20;4.70;;;21.70;70.00;;;;;;5211660;28;20057;-59
2021/09/20 10:49:21;;;;;;;5.32;4.47;;;21.70;70.00;;;;;;5214195;28;20045;-60
2021/09/20 10:52:05;;;;;;;5.35;4.85;;;21.70;70.00;;;;;;5215494;28;20045;-61
2021/09/20 10:54:37;;;;;;;5.03;4.18;;;21.70;70.00;;;;;;5212325;28;20041;-60
2021/09/20 10:57:12;;;;;;;5.40;4.60;;;21.70;70.00;;;;;;5195150;28;20056;-61
2021/09/20 10:59:45;;;;;;;4.90;4.43;;;21.70;70.10;;;;;;5212483;28;20048;-59
2021/09/20 11:02:22;;;;;;;7.60;4.82;;;21.70;70.10;;;;;;5210669;28;20093;-61
2021/09/20 11:05:08;;;;;;;6.18;4.75;;;21.70;70.10;;;;;;5212142;28;20048;-60
2021/09/20 11:07:48;;;;;;;5.53;4.68;;;21.70;70.10;;;;;;5210465;28;20049;-59
2021/09/20 11:10:34;;;;;;;6.57;4.80;;;21.70;70.10;;;;;;5210638;28;20788;-59
2021/09/20 11:13:07;;;;;;;6.43;4.53;;;21.70;70.00;;;;;;5206696;28;20041;-61
2021/09/20 11:15:42;;;;;;;5.53;4.77;;;21.70;70.00;;;;;;5202935;28;20052;-61
2021/09/20 11:18:34;;;;;;;4.97;4.40;;;21.70;70.00;;;;;;5220329;28;20317;-62
2021/09/20 11:21:07;;;;;;;4.28;3.88;;;21.80;70.00;;;;;;5206834;28;20539;-62
2021/09/20 11:23:40;;;;;;;4.53;4.13;;;21.70;70.00;;;;;;5211061;28;20056;-62
2021/09/20 11:26:16;;;;;;;6.28;4.35;;;21.80;70.00;;;;;;5210528;28;20045;-62
2021/09/20 11:28:52;;;;;;;5.90;4.72;;;21.80;70.00;;;;;;5213115;28;20674;-62
2021/09/20 11:31:28;;;;;;;5.75;4.60;;;21.90;70.00;;;;;;5212806;28;20071;-61
2021/09/20 11:34:01;;;;;;;4.95;4.28;;;21.90;69.90;;;;;;5213016;28;20052;-61
2021/09/20 11:36:34;;;;;;;4.57;3.88;;;21.90;70.50;;;;;;5211547;28;20056;-61
2021/09/20 11:39:09;;;;;;;5.90;4.25;;;22.00;69.90;;;;;;5211839;28;20045;-60
2021/09/20 11:41:45;;;;;;;8.32;4.70;;;22.00;70.00;;;;;;5210114;28;20060;-63
2021/09/20 11:44:27;;;;;;;5.80;4.03;;;22.00;70.10;;;;;;5210952;28;20049;-61
2021/09/20 11:47:00;;;;;;;7.80;4.63;;;21.90;70.20;;;;;;5212079;28;20064;-61
2021/09/20 11:49:32;;;;;;;7.65;4.32;;;22.00;70.20;;;;;;5214914;28;20053;-61
2021/09/20 11:52:05;;;;;;;4.43;3.87;;;22.00;70.20;;;;;;5212216;28;20523;-62
2021/09/20 11:54:43;;;;;;;4.95;3.80;;;22.00;70.30;;;;;;5207789;28;20683;-63
2021/09/20 11:57:22;;;;;;;11.13;4.80;;;22.00;70.30;;;;;;5212932;28;20044;-60
2021/09/20 12:00:06;;;;;;;6.57;4.75;;;22.10;69.60;;;;;;5212383;28;20057;-61
2021/09/20 12:02:48;;;;;;;14.75;4.53;;;22.00;69.80;;;;;;5212392;28;20049;-60
2021/09/20 12:05:34;;;;;;;7.90;4.47;;;22.00;69.90;;;;;;5207159;28;20053;-63
2021/09/20 12:08:13;;;;;;;7.57;4.40;;;22.00;69.90;;;;;;5209303;28;20049;-57
2021/09/20 12:10:48;;;;;;;14.35;5.13;;;22.00;70.10;;;;;;5211589;28;20100;-60
2021/09/20 12:13:27;;;;;;;8.73;4.45;;;22.00;70.20;;;;;;5211200;28;20421;-61
2021/09/20 12:16:08;;;;;;;13.30;4.90;;;22.00;70.30;;;;;;5210471;28;20041;-62
2021/09/20 12:18:41;;;;;;;9.43;4.30;;;22.00;70.40;;;;;;5210858;28;20044;-61
2021/09/20 12:21:15;;;;;;;13.38;4.95;;;22.00;70.60;;;;;;5206252;28;20064;-58
2021/09/20 12:23:50;;;;;;;15.60;4.95;;;22.00;70.70;;;;;;5210126;28;20060;-61
2021/09/20 12:26:24;;;;;;;9.48;4.72;;;22.00;70.60;;;;;;5207087;28;20053;-60
2021/09/20 12:29:00;;;;;;;11.98;4.35;;;22.00;70.60;;;;;;5205850;28;20493;-59
2021/09/20 12:31:36;;;;;;;12.57;5.47;;;22.00;70.90;;;;;;5189960;28;20060;-59
2021/09/20 12:34:16;;;;;;;16.70;5.05;;;22.00;70.80;;;;;;5190135;28;20662;-58
2021/09/20 12:36:54;;;;;;;11.88;4.38;;;22.00;71.00;;;;;;5184558;28;20041;-59
2021/09/20 12:39:30;;;;;;;14.82;5.43;;;22.00;71.20;;;;;;5181631;28;20049;-60
2021/09/20 12:42:07;;;;;;;14.30;5.30;;;22.00;71.30;;;;;;5184642;28;20049;-62
2021/09/20 12:44:48;;;;;;;17.50;5.18;;;22.00;71.50;;;;;;5165114;28;20064;-61
2021/09/20 12:47:26;;;;;;;19.65;4.65;;;22.00;71.50;;;;;;5175385;28;20044;-69
2021/09/20 12:50:06;;;;;;;12.73;4.88;;;22.00;71.80;;;;;;5157237;28;20808;-59
2021/09/20 12:52:43;;;;;;;16.08;5.10;;;22.00;72.20;;;;;;5177832;28;20041;-62
2021/09/20 12:55:17;;;;;;;20.70;5.60;;;22.10;72.20;;;;;;5175259;28;20049;-57
2021/09/20 12:57:54;;;;;;;14.43;5.07;;;22.20;72.00;;;;;;5190522;28;20409;-61
2021/09/20 13:00:36;;;;;;;14.65;5.13;;;22.20;72.40;;;;;;5194596;28;20536;-59
2021/09/20 13:03:12;;;;;;;19.65;5.57;;;22.20;72.40;;;;;;5210194;28;20049;-59
2021/09/20 13:05:48;;;;;;;29.55;5.97;;;22.30;72.50;;;;;;5185756;28;20037;-65
2021/09/20 13:08:21;;;;;;;28.05;5.53;;;22.30;71.60;;;;;;5186992;28;20059;-62
2021/09/20 13:10:53;;;;;;;18.77;7.28;;;22.30;71.30;;;;;;5187578;28;20077;-59
2021/09/20 13:13:35;;;;;;;20.25;6.10;;;22.30;70.40;;;;;;5189348;28;20041;-62
2021/09/20 13:16:09;;;;;;;12.65;5.95;;;22.30;69.40;;;;;;5192119;28;20056;-62
2021/09/20 13:18:42;;;;;;;14.90;6.75;;;22.20;69.20;;;;;;5189883;28;20409;-62
2021/09/20 13:21:24;;;;;;;16.10;6.97;;;22.20;68.40;;;;;;5191593;28;20055;-63